createdAt,value
2019-03-02T00:00:14.728Z,11.00
2019-03-02T00:02:43.470Z,11.00
2019-03-02T00:05:12.160Z,10.90
2019-03-02T00:07:43.854Z,10.60
2019-03-02T00:10:11.477Z,10.80
2019-03-02T00:12:40.237Z,10.70
2019-03-02T00:15:09.720Z,10.90
2019-03-02T00:17:38.427Z,10.90
2019-03-02T00:20:07.686Z,10.50
2019-03-02T00:22:39.419Z,10.80
2019-03-02T00:25:08.453Z,10.70
2019-03-02T00:27:37.148Z,10.80
2019-03-02T00:30:11.460Z,10.80
2019-03-02T00:32:41.610Z,10.70
2019-03-02T00:35:10.638Z,10.70
2019-03-02T00:37:39.371Z,10.80
2019-03-02T00:40:10.196Z,10.50
2019-03-02T00:42:38.873Z,10.40
2019-03-02T00:45:14.218Z,10.30
2019-03-02T00:47:43.770Z,10.50
2019-03-02T00:50:13.074Z,10.20
2019-03-02T00:52:41.934Z,10.60
2019-03-02T00:55:11.250Z,10.60
2019-03-02T00:57:39.928Z,10.60
2019-03-02T01:00:15.260Z,10.50
2019-03-02T01:02:42.333Z,10.60
2019-03-02T01:05:12.060Z,10.70
2019-03-02T01:07:40.723Z,10.60
2019-03-02T01:10:14.856Z,10.40
2019-03-02T01:12:44.147Z,10.20
2019-03-02T01:15:17.676Z,10.30
2019-03-02T01:17:46.343Z,10.70
2019-03-02T01:20:15.699Z,10.60
2019-03-02T01:22:44.826Z,10.30
2019-03-02T01:25:15.311Z,10.40
2019-03-02T01:27:44.087Z,10.70
2019-03-02T01:30:18.127Z,10.60
2019-03-02T01:32:48.711Z,10.40
2019-03-02T01:35:20.299Z,10.40
2019-03-02T01:37:47.686Z,10.60
2019-03-02T01:40:16.671Z,10.50
2019-03-02T01:42:45.606Z,10.40
2019-03-02T01:45:16.295Z,10.30
2019-03-02T01:47:50.533Z,10.50
2019-03-02T01:50:17.624Z,10.50
2019-03-02T01:52:46.345Z,10.20
2019-03-02T01:55:16.425Z,10.30
2019-03-02T01:57:48.818Z,10.30
2019-03-02T02:00:22.985Z,10.40
2019-03-02T02:02:51.957Z,10.60
2019-03-02T02:05:21.058Z,10.20
2019-03-02T02:07:53.784Z,10.50
2019-03-02T02:10:20.212Z,10.40
2019-03-02T02:12:48.888Z,10.30
2019-03-02T02:15:20.199Z,10.50
2019-03-02T02:17:49.626Z,10.20
2019-03-02T02:20:19.819Z,10.40
2019-03-02T02:22:48.606Z,10.70
2019-03-02T02:25:19.685Z,10.60
2019-03-02T02:27:48.614Z,10.70
2019-03-02T02:30:24.376Z,10.80
2019-03-02T02:32:50.683Z,10.50
2019-03-02T02:35:19.353Z,10.70
2019-03-02T02:37:48.065Z,10.70
2019-03-02T02:40:17.399Z,10.30
2019-03-02T02:42:46.193Z,10.60
2019-03-02T02:45:19.958Z,10.40
2019-03-02T02:47:51.854Z,10.30
2019-03-02T02:50:28.109Z,10.70
2019-03-02T02:52:50.474Z,10.60
2019-03-02T02:55:19.204Z,10.70
2019-03-02T02:57:47.934Z,10.40
2019-03-02T03:00:22.953Z,10.60
2019-03-02T03:03:10.913Z,10.70
2019-03-02T03:05:39.650Z,10.50
2019-03-02T03:08:08.416Z,10.50
2019-03-02T03:10:38.996Z,10.50
2019-03-02T03:13:07.734Z,10.60
2019-03-02T03:15:40.834Z,10.50
2019-03-02T03:18:12.234Z,10.60
2019-03-02T03:20:47.835Z,10.60
2019-03-02T03:23:10.374Z,10.50
2019-03-02T03:25:39.259Z,10.80
2019-03-02T03:28:07.975Z,10.60
2019-03-02T03:30:39.588Z,10.60
2019-03-02T03:33:07.287Z,10.50
2019-03-02T03:35:36.109Z,10.50
2019-03-02T03:38:04.902Z,10.70
2019-03-02T03:40:33.573Z,10.30
2019-03-02T03:43:03.690Z,10.50
2019-03-02T03:45:32.753Z,10.50
2019-03-02T03:48:01.477Z,10.40
2019-03-02T03:50:30.156Z,10.80
2019-03-02T03:52:58.871Z,10.60
2019-03-02T03:55:27.813Z,10.60
2019-03-02T03:58:00.592Z,10.70
2019-03-02T04:00:27.277Z,10.80
2019-03-02T04:02:56.005Z,10.50
2019-03-02T04:05:24.721Z,10.80
2019-03-02T04:07:53.411Z,10.70
2019-03-02T04:10:25.707Z,10.70
2019-03-02T04:12:52.813Z,10.60
2019-03-02T04:15:21.524Z,10.70
2019-03-02T04:17:50.261Z,10.70
2019-03-02T04:20:37.317Z,10.70
2019-03-02T04:23:08.900Z,10.40
2019-03-02T04:25:37.587Z,10.70
2019-03-02T04:28:06.461Z,10.60
2019-03-02T04:30:35.178Z,10.30
2019-03-02T04:33:05.873Z,10.60
2019-03-02T04:35:35.187Z,10.50
2019-03-02T04:38:04.065Z,10.70
2019-03-02T04:40:32.752Z,10.40
2019-03-02T04:43:01.431Z,10.50
2019-03-02T04:45:30.247Z,10.40
2019-03-02T04:47:59.899Z,10.40
2019-03-02T04:50:29.661Z,10.40
2019-03-02T04:52:58.448Z,10.40
2019-03-02T04:55:27.326Z,10.40
2019-03-02T04:57:56.061Z,10.50
2019-03-02T05:00:24.799Z,10.20
2019-03-02T05:02:55.273Z,10.30
2019-03-02T05:05:23.931Z,10.50
2019-03-02T05:07:52.726Z,10.60
2019-03-02T05:10:24.799Z,10.80
2019-03-02T05:12:53.008Z,10.50
2019-03-02T05:15:22.613Z,10.40
2019-03-02T05:17:51.372Z,10.30
2019-03-02T05:20:20.347Z,10.20
2019-03-02T05:22:50.821Z,10.30
2019-03-02T05:25:20.207Z,10.50
2019-03-02T05:27:49.053Z,10.50
2019-03-02T05:30:18.651Z,10.30
2019-03-02T05:32:50.825Z,10.30
2019-03-02T05:35:18.130Z,10.40
2019-03-02T05:37:46.926Z,10.50
2019-03-02T05:40:15.907Z,10.40
2019-03-02T05:42:48.841Z,10.50
2019-03-02T05:45:15.707Z,10.50
2019-03-02T05:47:44.443Z,10.50
2019-03-02T05:50:14.630Z,10.60
2019-03-02T05:52:43.312Z,10.30
2019-03-02T05:55:14.472Z,10.60
2019-03-02T05:57:42.711Z,10.60
2019-03-02T06:00:17.132Z,10.40
2019-03-02T06:02:45.827Z,10.40
2019-03-02T06:05:15.281Z,10.70
2019-03-02T06:07:44.024Z,10.30
2019-03-02T06:10:14.195Z,10.40
2019-03-02T06:12:43.250Z,10.70
2019-03-02T06:15:14.295Z,10.50
2019-03-02T06:17:42.988Z,10.70
2019-03-02T06:20:13.127Z,10.30
2019-03-02T06:22:41.811Z,10.50
2019-03-02T06:25:19.560Z,10.60
2019-03-02T06:27:43.049Z,10.70
2019-03-02T06:30:15.398Z,10.60
2019-03-02T06:32:44.137Z,10.60
2019-03-02T06:35:12.844Z,10.50
2019-03-02T06:37:41.625Z,10.70
2019-03-02T06:40:11.688Z,10.90
2019-03-02T06:42:45.153Z,10.80
2019-03-02T06:45:12.876Z,10.40
2019-03-02T06:47:41.587Z,10.70
2019-03-02T06:50:12.777Z,10.50
2019-03-02T06:52:41.514Z,10.50
2019-03-02T06:55:11.898Z,10.50
2019-03-02T06:57:40.646Z,10.50
2019-03-02T07:00:20.118Z,10.60
2019-03-02T07:02:49.231Z,10.70
2019-03-02T07:05:18.120Z,10.80
2019-03-02T07:07:46.862Z,10.50
2019-03-02T07:10:23.612Z,10.50
2019-03-02T07:12:53.951Z,10.80
2019-03-02T07:15:22.694Z,10.60
2019-03-02T07:18:09.471Z,10.30
2019-03-02T07:20:42.543Z,10.40
2019-03-02T07:23:11.259Z,10.40
2019-03-02T07:25:40.801Z,10.20
2019-03-02T07:28:10.387Z,10.40
2019-03-02T07:30:40.696Z,10.30
2019-03-02T07:33:09.718Z,10.30
2019-03-02T07:35:38.423Z,10.20
2019-03-02T07:38:08.406Z,10.00
2019-03-02T07:40:41.350Z,10.10
2019-03-02T07:43:09.701Z,10.20
2019-03-02T07:45:38.377Z,10.10
2019-03-02T07:48:07.097Z,10.30
2019-03-02T07:50:35.783Z,10.00
2019-03-02T07:53:04.527Z,10.50
2019-03-02T07:55:33.198Z,10.60
2019-03-02T07:58:01.894Z,10.40
2019-03-02T08:00:30.600Z,10.50
2019-03-02T08:02:59.363Z,10.60
2019-03-02T08:05:28.082Z,10.40
2019-03-02T08:07:56.941Z,10.50
2019-03-02T08:10:25.667Z,10.40
2019-03-02T08:12:57.692Z,10.50
2019-03-02T08:15:32.807Z,10.50
2019-03-02T08:18:01.648Z,10.40
2019-03-02T08:20:30.356Z,10.50
2019-03-02T08:22:59.283Z,10.70
2019-03-02T08:25:27.980Z,10.60
2019-03-02T08:27:56.915Z,10.70
2019-03-02T08:30:25.857Z,10.70
2019-03-02T08:32:57.702Z,10.50
2019-03-02T08:35:25.081Z,10.50
2019-03-02T08:37:53.783Z,10.60
2019-03-02T08:40:23.696Z,10.60
2019-03-02T08:42:53.229Z,10.50
2019-03-02T08:45:21.987Z,10.80
2019-03-02T08:47:50.722Z,10.90
2019-03-02T08:50:20.394Z,10.90
2019-03-02T08:52:49.117Z,10.90
2019-03-02T08:55:19.851Z,10.90
2019-03-02T08:57:48.571Z,10.90
2019-03-02T09:00:19.763Z,10.90
2019-03-02T09:02:48.464Z,11.10
2019-03-02T09:05:17.168Z,11.10
2019-03-02T09:07:46.326Z,10.90
2019-03-02T09:10:16.814Z,11.10
2019-03-02T09:12:45.543Z,10.60
2019-03-02T09:15:30.030Z,10.90
2019-03-02T09:17:58.827Z,10.90
2019-03-02T09:20:27.951Z,11.00
2019-03-02T09:23:00.700Z,10.70
2019-03-02T09:25:29.501Z,10.70
2019-03-02T09:27:57.488Z,10.70
2019-03-02T09:30:26.227Z,10.80
2019-03-02T09:32:56.499Z,11.10
2019-03-02T09:35:25.238Z,10.80
2019-03-02T09:37:53.934Z,11.00
2019-03-02T09:40:24.770Z,11.20
2019-03-02T09:42:54.263Z,11.30
2019-03-02T09:45:23.012Z,11.10
2019-03-02T09:47:52.484Z,11.00
2019-03-02T09:50:22.354Z,11.20
2019-03-02T09:52:52.509Z,11.40
2019-03-02T09:55:21.375Z,11.30
2019-03-02T09:57:50.541Z,11.30
2019-03-02T10:00:28.474Z,11.40
2019-03-02T10:02:57.202Z,11.20
2019-03-02T10:05:26.322Z,11.20
2019-03-02T10:07:55.515Z,11.20
2019-03-02T10:10:28.969Z,11.50
2019-03-02T10:12:54.706Z,11.40
2019-03-02T10:15:28.245Z,11.20
2019-03-02T10:17:56.990Z,11.20
2019-03-02T10:20:25.758Z,11.40
2019-03-02T10:22:54.480Z,11.40
2019-03-02T10:25:26.431Z,11.40
2019-03-02T10:27:56.910Z,11.40
2019-03-02T10:30:27.617Z,11.10
2019-03-02T10:32:57.305Z,11.50
2019-03-02T10:35:27.708Z,11.50
2019-03-02T10:37:56.620Z,11.60
2019-03-02T10:40:25.555Z,11.50
2019-03-02T10:42:54.274Z,11.40
2019-03-02T10:45:23.205Z,11.60
2019-03-02T10:47:54.031Z,11.50
2019-03-02T10:50:25.141Z,11.80
2019-03-02T10:52:54.023Z,11.90
2019-03-02T10:55:23.822Z,11.90
2019-03-02T10:57:53.115Z,11.60
2019-03-02T11:00:29.674Z,11.80
2019-03-02T11:03:02.277Z,12.00
2019-03-02T11:05:41.908Z,11.90
2019-03-02T11:08:21.734Z,12.40
2019-03-02T11:10:59.187Z,12.30
2019-03-02T11:13:45.940Z,12.30
2019-03-02T11:16:25.366Z,12.10
2019-03-02T11:18:55.632Z,12.20
2019-03-02T11:21:34.776Z,12.30
2019-03-02T11:24:03.897Z,12.00
2019-03-02T11:26:40.697Z,12.20
2019-03-02T11:29:23.088Z,12.40
2019-03-02T11:32:08.535Z,12.10
2019-03-02T11:34:57.034Z,12.10
2019-03-02T11:37:27.436Z,12.20
2019-03-02T11:40:06.529Z,12.50
2019-03-02T11:42:45.716Z,12.50
2019-03-02T11:45:24.944Z,12.60
2019-03-02T11:50:36.251Z,12.50
2019-03-02T11:53:12.667Z,12.50
2019-03-02T11:55:43.732Z,12.40
2019-03-02T11:58:29.783Z,12.70
2019-03-02T12:01:01.134Z,12.90
2019-03-02T12:03:47.754Z,12.60
2019-03-02T12:06:37.715Z,12.60
2019-03-02T12:09:08.106Z,12.80
2019-03-02T12:11:47.047Z,12.80
2019-03-02T12:14:16.299Z,12.90
2019-03-02T12:16:46.553Z,13.10
2019-03-02T12:19:19.518Z,13.00
2019-03-02T12:21:49.857Z,12.70
2019-03-02T12:24:25.995Z,13.20
2019-03-02T12:26:59.301Z,13.10
2019-03-02T12:29:32.418Z,13.10
2019-03-02T12:32:07.550Z,13.20
2019-03-02T12:34:40.134Z,13.00
2019-03-02T12:37:20.530Z,13.20
2019-03-02T12:39:51.140Z,13.00
2019-03-02T12:42:26.650Z,13.40
2019-03-02T12:45:01.313Z,13.20
2019-03-02T12:47:37.187Z,13.40
2019-03-02T12:50:10.215Z,13.40
2019-03-02T12:52:43.236Z,13.50
2019-03-02T12:55:16.491Z,13.50
2019-03-02T12:57:46.468Z,13.70
2019-03-02T13:00:17.223Z,13.50
2019-03-02T13:02:56.251Z,13.60
2019-03-02T13:05:29.589Z,13.50
2019-03-02T13:08:02.737Z,13.60
2019-03-02T13:10:36.009Z,13.90
2019-03-02T13:13:12.297Z,13.80
2019-03-02T13:15:57.798Z,13.80
2019-03-02T13:18:40.270Z,13.80
2019-03-02T13:21:19.669Z,14.00
2019-03-02T13:24:06.417Z,13.70
2019-03-02T13:26:51.800Z,13.70
2019-03-02T13:29:22.054Z,13.90
2019-03-02T13:32:01.170Z,14.00
2019-03-02T13:34:48.282Z,13.80
2019-03-02T13:37:20.311Z,14.00
2019-03-02T13:39:56.442Z,13.90
2019-03-02T13:42:26.754Z,14.20
2019-03-02T13:45:05.991Z,14.10
2019-03-02T13:47:38.598Z,14.30
2019-03-02T13:50:20.409Z,14.10
2019-03-02T13:52:53.832Z,14.30
2019-03-02T13:55:24.141Z,14.20
2019-03-02T13:57:54.444Z,14.20
2019-03-02T14:00:36.500Z,14.30
2019-03-02T14:03:06.770Z,14.30
2019-03-02T14:05:55.114Z,14.30
2019-03-02T14:08:31.050Z,14.30
2019-03-02T14:11:17.404Z,14.20
2019-03-02T14:13:57.912Z,14.60
2019-03-02T14:16:37.033Z,14.40
2019-03-02T14:19:10.429Z,14.30
2019-03-02T14:21:49.454Z,14.40
2019-03-02T14:24:19.895Z,14.20
2019-03-02T14:26:55.963Z,14.40
2019-03-02T14:29:28.978Z,14.40
2019-03-02T14:31:59.234Z,14.20
2019-03-02T14:34:29.502Z,14.30
2019-03-02T14:36:59.796Z,14.50
2019-03-02T14:39:30.066Z,14.20
2019-03-02T14:42:04.081Z,14.60
2019-03-02T14:44:38.447Z,14.20
2019-03-02T14:47:08.724Z,14.30
2019-03-02T14:49:39.060Z,14.30
2019-03-02T14:52:12.210Z,14.20
2019-03-02T14:54:48.626Z,14.20
2019-03-02T14:57:25.718Z,14.20
2019-03-02T15:00:02.016Z,14.00
2019-03-02T15:02:32.336Z,14.10
2019-03-02T15:05:08.630Z,13.90
2019-03-02T15:07:41.429Z,13.90
2019-03-02T15:10:36.594Z,13.90
2019-03-02T15:13:17.031Z,14.10
2019-03-02T15:15:54.529Z,14.10
2019-03-02T15:18:29.208Z,14.00
2019-03-02T15:20:57.142Z,14.00
2019-03-02T15:23:27.490Z,14.10
2019-03-02T15:26:09.910Z,13.80
2019-03-02T15:28:40.210Z,14.30
2019-03-02T15:31:13.448Z,14.30
2019-03-02T15:33:58.996Z,14.00
2019-03-02T15:36:44.089Z,13.70
2019-03-02T15:39:16.453Z,13.80
2019-03-02T15:41:56.899Z,13.60
2019-03-02T15:44:29.899Z,13.50
2019-03-02T15:47:00.175Z,13.50
2019-03-02T15:49:30.634Z,13.60
2019-03-02T15:52:11.935Z,13.80
2019-03-02T15:54:47.771Z,13.60
2019-03-02T15:57:39.591Z,13.80
2019-03-02T16:00:20.201Z,13.80
2019-03-02T16:02:56.061Z,13.70
2019-03-02T16:05:26.428Z,13.80
2019-03-02T16:08:14.334Z,13.70
2019-03-02T16:10:45.056Z,13.70
2019-03-02T16:13:27.650Z,13.60
2019-03-02T16:16:06.947Z,13.80
2019-03-02T16:18:38.445Z,13.70
2019-03-02T16:21:24.137Z,13.50
2019-03-02T16:23:54.498Z,13.70
2019-03-02T16:26:40.706Z,13.30
2019-03-02T16:29:19.045Z,13.50
2019-03-02T16:31:51.961Z,13.50
2019-03-02T16:34:38.667Z,13.50
2019-03-02T16:37:13.154Z,13.70
2019-03-02T16:39:46.111Z,13.50
2019-03-02T16:42:16.392Z,13.70
2019-03-02T16:44:55.985Z,13.50
2019-03-02T16:47:38.194Z,13.50
2019-03-02T16:50:12.956Z,13.70
2019-03-02T16:52:46.165Z,13.20
2019-03-02T16:55:22.300Z,13.50
2019-03-02T16:57:52.933Z,13.40
2019-03-02T17:00:29.260Z,13.20
2019-03-02T17:03:16.635Z,13.30
2019-03-02T17:05:47.146Z,13.30
2019-03-02T17:08:31.141Z,13.30
2019-03-02T17:11:17.997Z,13.30
2019-03-02T17:14:05.246Z,13.10
2019-03-02T17:16:42.364Z,13.50
2019-03-02T17:19:18.630Z,13.50
2019-03-02T17:22:00.664Z,13.30
2019-03-02T17:24:30.966Z,13.50
2019-03-02T17:27:21.321Z,13.20
2019-03-02T17:30:09.595Z,13.40
2019-03-02T17:32:55.584Z,13.40
2019-03-02T17:35:29.230Z,13.20
2019-03-02T17:38:16.557Z,13.00
2019-03-02T17:40:52.668Z,13.30
2019-03-02T17:43:40.450Z,13.00
2019-03-02T17:46:16.017Z,13.00
2019-03-02T17:48:46.299Z,13.20
2019-03-02T17:51:16.591Z,13.00
2019-03-02T17:53:46.861Z,13.10
2019-03-02T17:56:22.780Z,13.30
2019-03-02T17:59:08.138Z,13.10
2019-03-02T18:01:37.024Z,13.30
2019-03-02T18:04:07.328Z,13.10
2019-03-02T18:06:55.759Z,13.30
2019-03-02T18:09:33.241Z,13.30
2019-03-02T18:12:03.572Z,12.90
2019-03-02T18:14:34.184Z,13.10
2019-03-02T18:17:20.857Z,13.10
2019-03-02T18:19:49.574Z,12.90
2019-03-02T18:22:20.021Z,13.20
2019-03-02T18:24:48.677Z,13.00
2019-03-02T18:27:17.399Z,13.00
2019-03-02T18:29:46.069Z,12.80
2019-03-02T18:32:14.801Z,13.10
2019-03-02T18:34:43.684Z,12.80
2019-03-02T18:37:12.391Z,13.20
2019-03-02T18:39:41.254Z,12.80
2019-03-02T18:42:10.203Z,12.90
2019-03-02T18:44:38.920Z,12.80
2019-03-02T18:47:30.063Z,12.80
2019-03-02T18:49:58.872Z,12.80
2019-03-02T18:52:47.492Z,12.80
2019-03-02T18:55:16.254Z,12.80
2019-03-02T18:57:46.643Z,12.60
2019-03-02T19:00:22.200Z,12.80
2019-03-02T19:02:49.572Z,12.60
2019-03-02T19:05:18.280Z,12.70
2019-03-02T19:07:48.667Z,12.60
2019-03-02T19:10:17.443Z,12.80
2019-03-02T19:12:47.117Z,12.80
2019-03-02T19:15:15.854Z,12.60
2019-03-02T19:17:46.982Z,12.50
2019-03-02T19:20:16.809Z,12.70
2019-03-02T19:22:45.910Z,12.40
2019-03-02T19:25:16.136Z,12.60
2019-03-02T19:27:44.816Z,12.80
2019-03-02T19:30:18.713Z,12.60
2019-03-02T19:32:47.395Z,12.60
2019-03-02T19:35:16.105Z,12.80
2019-03-02T19:37:44.842Z,12.90
2019-03-02T19:40:16.427Z,12.80
2019-03-02T19:42:46.131Z,12.80
2019-03-02T19:45:15.342Z,12.70
2019-03-02T19:47:44.311Z,12.70
2019-03-02T19:50:18.054Z,12.80
2019-03-02T19:52:46.781Z,12.90
2019-03-02T19:55:16.508Z,13.10
2019-03-02T19:57:46.014Z,12.70
2019-03-02T20:00:29.517Z,12.70
2019-03-02T20:02:58.195Z,13.00
2019-03-02T20:05:27.029Z,12.90
2019-03-02T20:07:55.844Z,12.90
2019-03-02T20:10:24.902Z,13.10
2019-03-02T20:12:53.672Z,12.80
2019-03-02T20:15:24.644Z,12.90
2019-03-02T20:17:53.344Z,13.10
2019-03-02T20:20:22.070Z,13.10
2019-03-02T20:22:50.780Z,13.30
2019-03-02T20:25:19.995Z,12.90
2019-03-02T20:27:48.678Z,13.20
2019-03-02T20:30:19.063Z,13.20
2019-03-02T20:32:49.552Z,13.00
2019-03-02T20:35:25.063Z,13.10
2019-03-02T20:37:53.775Z,13.00
2019-03-02T20:40:29.539Z,13.10
2019-03-02T20:42:58.249Z,13.20
2019-03-02T20:45:27.539Z,13.00
2019-03-02T20:47:56.217Z,12.80
2019-03-02T20:50:25.895Z,12.80
2019-03-02T20:52:54.601Z,13.20
2019-03-02T20:55:24.158Z,13.00
2019-03-02T20:57:53.159Z,12.90
2019-03-02T21:00:27.472Z,12.90
2019-03-02T21:02:57.369Z,13.00
2019-03-02T21:05:27.270Z,13.10
2019-03-02T21:07:56.221Z,13.10
2019-03-02T21:10:29.331Z,13.20
2019-03-02T21:12:58.130Z,13.10
2019-03-02T21:15:38.904Z,13.20
2019-03-02T21:18:07.804Z,13.30
2019-03-02T21:20:36.750Z,13.30
2019-03-02T21:23:05.693Z,13.30
2019-03-02T21:25:34.352Z,13.30
2019-03-02T21:28:03.051Z,12.90
2019-03-02T21:30:31.731Z,12.80
2019-03-02T21:33:00.407Z,13.00
2019-03-02T21:35:29.054Z,12.80
2019-03-02T21:37:57.755Z,12.80
2019-03-02T21:40:31.591Z,13.00
2019-03-02T21:43:00.267Z,13.00
2019-03-02T21:45:29.784Z,12.90
2019-03-02T21:47:58.484Z,12.90
2019-03-02T21:50:32.373Z,12.90
2019-03-02T21:53:01.138Z,12.90
2019-03-02T21:55:29.800Z,12.90
2019-03-02T21:57:58.538Z,13.10
2019-03-02T22:00:28.466Z,13.10
2019-03-02T22:03:00.118Z,12.70
2019-03-02T22:05:28.781Z,13.10
2019-03-02T22:07:57.475Z,13.10
2019-03-02T22:10:44.845Z,12.90
2019-03-02T22:13:13.531Z,12.80
2019-03-02T22:15:42.201Z,12.90
2019-03-02T22:18:10.914Z,12.70
2019-03-02T22:20:39.582Z,12.60
2019-03-02T22:23:08.296Z,12.80
2019-03-02T22:25:36.995Z,13.00
2019-03-02T22:28:05.955Z,12.90
2019-03-02T22:30:34.700Z,12.80
2019-03-02T22:33:03.388Z,12.80
2019-03-02T22:35:32.071Z,13.10
2019-03-02T22:38:00.757Z,12.60
2019-03-02T22:40:29.427Z,12.60
2019-03-02T22:42:58.243Z,12.90
2019-03-02T22:45:26.937Z,12.60
2019-03-02T22:47:55.641Z,13.00
2019-03-02T22:50:26.311Z,12.90
2019-03-02T22:52:54.977Z,12.60
2019-03-02T22:55:23.751Z,12.90
2019-03-02T22:57:52.441Z,12.70
2019-03-02T23:00:27.158Z,12.70
2019-03-02T23:02:54.671Z,13.00
2019-03-02T23:05:24.132Z,12.60
2019-03-02T23:07:53.048Z,12.70
2019-03-02T23:10:21.961Z,12.70
2019-03-02T23:12:50.674Z,12.60
2019-03-02T23:15:25.264Z,12.50
2019-03-02T23:17:55.519Z,12.80
2019-03-02T23:20:24.254Z,12.60
2019-03-02T23:22:53.161Z,12.90
2019-03-02T23:25:21.845Z,13.00
2019-03-02T23:27:50.553Z,12.90
2019-03-02T23:30:21.630Z,13.20
2019-03-02T23:32:50.349Z,13.00
2019-03-02T23:35:19.024Z,13.10
2019-03-02T23:37:47.767Z,12.80
2019-03-02T23:40:18.757Z,12.70
2019-03-02T23:42:47.447Z,12.80
2019-03-02T23:45:19.480Z,12.70
2019-03-02T23:47:48.174Z,12.60
2019-03-02T23:50:16.840Z,12.60
2019-03-02T23:52:45.637Z,12.80
2019-03-02T23:55:15.248Z,12.80
2019-03-02T23:57:44.320Z,12.90
